Observation data for Plainview on 03/20/2017      Previous  Date  Next       Current Mesonet Observations  Soil Data  Daily Summary Page  Observations in Plain Language
KPVS 200505Z 20011KT 19/07 A3008 RMK A01 T01880069  RH  046%=      5-min Rain = 0
KPVS 200510Z 19010KT 19/07 A3008 RMK A01 T01900071  RH  047%=      5-min Rain = 0
KPVS 200515Z 19009KT 19/07 A3007 RMK A01 T01880071  RH  047%=      5-min Rain = 0
KPVS 200520Z 19008KT 18/07 A3007 RMK A01 T01840071  RH  048%=      5-min Rain = 0
KPVS 200525Z 20009KT 19/07 A3007 RMK A01 T01860073  RH  048%=      5-min Rain = 0
KPVS 200530Z 20010KT 19/07 A3007 RMK A01 T01870073  RH  048%=      5-min Rain = 0
KPVS 200535Z 21009G14KT 19/07 A3007 RMK A01 T01880074  RH  048%=      5-min Rain = 0
KPVS 200540Z 21009G14KT 19/08 A3007 RMK A01 T01900075  RH  048%=      5-min Rain = 0
KPVS 200545Z 21009G14KT 19/08 A3008 RMK A01 T01930076  RH  047%=      5-min Rain = 0
KPVS 200550Z 22009KT 20/08 A3008 RMK A01 T01950077  RH  047%=      5-min Rain = 0
KPVS 200555Z 24008KT 19/08 A3008 RMK A01 T01940077  RH  047%=      5-min Rain = 0
KPVS 200600Z 26008KT 19/08 A3009 RMK A01 T01890077  RH  049%=      5-min Rain = 0
KPVS 200605Z 27007KT 19/08 A3009 RMK A01 T01860076  RH  049%=      5-min Rain = 0
KPVS 200610Z 27007KT 18/08 A3009 RMK A01 T01820075  RH  050%=      5-min Rain = 0
KPVS 200615Z 24006KT 18/07 A3009 RMK A01 T01820074  RH  050%=      5-min Rain = 0
KPVS 200620Z 24006KT 18/07 A3008 RMK A01 T01810073  RH  050%=      5-min Rain = 0
KPVS 200625Z 23007KT 18/07 A3008 RMK A01 T01780072  RH  050%=      5-min Rain = 0
KPVS 200630Z 23007KT 17/07 A3008 RMK A01 T01740072  RH  052%=      5-min Rain = 0
KPVS 200635Z 23006G11KT 17/07 A3008 RMK A01 T01710071  RH  053%=      5-min Rain = 0
KPVS 200640Z 24006KT 17/07 A3008 RMK A01 T01670071  RH  054%=      5-min Rain = 0
KPVS 200645Z 24007KT 17/07 A3008 RMK A01 T01660071  RH  054%=      5-min Rain = 0
KPVS 200650Z 23007KT 17/07 A3008 RMK A01 T01670069  RH  053%=      5-min Rain = 0
KPVS 200655Z 23007KT 17/07 A3008 RMK A01 T01650069  RH  054%=      5-min Rain = 0
KPVS 200700Z 23009KT 16/07 A3008 RMK A01 T01640069  RH  054%=      5-min Rain = 0
KPVS 200705Z 23010KT 17/07 A3008 RMK A01 T01660070  RH  054%=      5-min Rain = 0
KPVS 200710Z 23010KT 17/07 A3008 RMK A01 T01680072  RH  054%=      5-min Rain = 0
KPVS 200715Z 23010KT 17/07 A3007 RMK A01 T01690074  RH  054%=      5-min Rain = 0
KPVS 200720Z 23010KT 17/07 A3007 RMK A01 T01680074  RH  055%=      5-min Rain = 0
KPVS 200725Z 23010KT 17/07 A3007 RMK A01 T01660074  RH  055%=      5-min Rain = 0
KPVS 200730Z 23009KT 16/07 A3007 RMK A01 T01640073  RH  056%=      5-min Rain = 0
KPVS 200735Z 22009KT 16/07 A3007 RMK A01 T01610072  RH  056%=      5-min Rain = 0
KPVS 200740Z 22009KT 16/07 A3007 RMK A01 T01600072  RH  056%=      5-min Rain = 0
KPVS 200745Z 22009KT 16/07 A3007 RMK A01 T01600073  RH  057%=      5-min Rain = 0
KPVS 200750Z 22008KT 16/07 A3007 RMK A01 T01580073  RH  058%=      5-min Rain = 0
KPVS 200755Z 22008KT 16/07 A3007 RMK A01 T01560073  RH  059%=      5-min Rain = 0
KPVS 200800Z 22008KT 16/08 A3007 RMK A01 T01550075  RH  060%=      5-min Rain = 0
KPVS 200805Z 23008KT 15/08 A3007 RMK A01 T01540078  RH  061%=      5-min Rain = 0
KPVS 200810Z 23008KT 16/08 A3007 RMK A01 T01550081  RH  062%=      5-min Rain = 0
KPVS 200815Z 23008KT 16/09 A3007 RMK A01 T01560085  RH  064%=      5-min Rain = 0
KPVS 200820Z 23009KT 16/09 A3007 RMK A01 T01560087  RH  064%=      5-min Rain = 0
KPVS 200825Z 23010KT 16/09 A3007 RMK A01 T01560090  RH  066%=      5-min Rain = 0
KPVS 200830Z 23009KT 16/09 A3007 RMK A01 T01570092  RH  066%=      5-min Rain = 0
KPVS 200835Z 23009KT 16/09 A3007 RMK A01 T01560093  RH  067%=      5-min Rain = 0
KPVS 200840Z 23009KT 16/10 A3007 RMK A01 T01550095  RH  068%=      5-min Rain = 0
KPVS 200845Z 23007G13KT 15/10 A3007 RMK A01 T01540096  RH  069%=      5-min Rain = 0
KPVS 200850Z 22009KT 16/10 A3007 RMK A01 T01550098  RH  070%=      5-min Rain = 0
KPVS 200855Z 22008KT 15/10 A3007 RMK A01 T01540099  RH  071%=      5-min Rain = 0
KPVS 200900Z 22008KT 15/10 A3007 RMK A01 T01540100  RH  071%=      5-min Rain = 0
KPVS 200905Z 22009KT 15/10 A3006 RMK A01 T01540102  RH  072%=      5-min Rain = 0
KPVS 200910Z 22010KT 16/10 A3006 RMK A01 T01560104  RH  073%=      5-min Rain = 0
KPVS 200915Z 22009KT 16/11 A3006 RMK A01 T01580107  RH  073%=      5-min Rain = 0
KPVS 200920Z 22008G13KT 16/11 A3006 RMK A01 T01580108  RH  073%=      5-min Rain = 0
KPVS 200925Z 22008KT 16/11 A3006 RMK A01 T01580109  RH  074%=      5-min Rain = 0
KPVS 200930Z 22008KT 16/11 A3005 RMK A01 T01570110  RH  075%=      5-min Rain = 0
KPVS 200935Z 22008KT 16/11 A3005 RMK A01 T01560110  RH  076%=      5-min Rain = 0
KPVS 200940Z 22009KT 16/11 A3005 RMK A01 T01560111  RH  076%=      5-min Rain = 0
KPVS 200945Z 22009KT 16/11 A3005 RMK A01 T01560112  RH  077%=      5-min Rain = 0
KPVS 200950Z 23008G13KT 15/11 A3006 RMK A01 T01540112  RH  077%=      5-min Rain = 0
KPVS 200955Z 23008KT 15/11 A3006 RMK A01 T01530112  RH  078%=      5-min Rain = 0
KPVS 201000Z 22008KT 15/11 A3006 RMK A01 T01520112  RH  078%=      5-min Rain = 0
KPVS 201005Z 22007KT 15/11 A3006 RMK A01 T01500112  RH  079%=      5-min Rain = 0
KPVS 201010Z 23007KT 15/11 A3006 RMK A01 T01490111  RH  080%=      5-min Rain = 0
KPVS 201015Z 24006KT 15/11 A3006 RMK A01 T01470110  RH  080%=      5-min Rain = 0
KPVS 201020Z 23006KT 14/11 A3006 RMK A01 T01440110  RH  081%=      5-min Rain = 0
KPVS 201025Z 23005KT 14/11 A3006 RMK A01 T01430109  RH  081%=      5-min Rain = 0
KPVS 201030Z 24005KT 14/11 A3006 RMK A01 T01410108  RH  082%=      5-min Rain = 0
KPVS 201035Z 23005KT 14/11 A3007 RMK A01 T01390108  RH  083%=      5-min Rain = 0
KPVS 201040Z 22005KT 14/11 A3007 RMK A01 T01380107  RH  083%=      5-min Rain = 0
KPVS 201045Z 23005KT 14/11 A3007 RMK A01 T01370107  RH  083%=      5-min Rain = 0
KPVS 201050Z 22006KT 14/11 A3007 RMK A01 T01360106  RH  084%=      5-min Rain = 0
KPVS 201055Z 22006KT 14/11 A3007 RMK A01 T01350106  RH  084%=      5-min Rain = 0
KPVS 201100Z 24005KT 14/11 A3007 RMK A01 T01350106  RH  084%=      5-min Rain = 0
KPVS 201105Z 26004KT 13/10 A3007 RMK A01 T01320103  RH  084%=      5-min Rain = 0
KPVS 201110Z 29007KT 12/10 A3008 RMK A01 T01230097  RH  086%=      5-min Rain = 0
KPVS 201115Z 29008KT 12/10 A3009 RMK A01 T01220102  RH  089%=      5-min Rain = 0
KPVS 201120Z 26006KT 13/11 A3009 RMK A01 T01300105  RH  087%=      5-min Rain = 0
KPVS 201125Z 28007KT 13/10 A3009 RMK A01 T01290103  RH  086%=      5-min Rain = 0
KPVS 201130Z 28006KT 13/10 A3009 RMK A01 T01290102  RH  085%=      5-min Rain = 0
KPVS 201135Z 28006KT 13/10 A3009 RMK A01 T01270102  RH  086%=      5-min Rain = 0
KPVS 201140Z 28007KT 13/10 A301 RMK A01 T01260100  RH  086%=      5-min Rain = 0
KPVS 201145Z 28006KT 13/10 A301 RMK A01 T01250098  RH  085%=      5-min Rain = 0
KPVS 201150Z 28005KT 12/10 A3009 RMK A01 T01220096  RH  086%=      5-min Rain = 0
KPVS 201155Z 25004KT 12/10 A3009 RMK A01 T01220097  RH  086%=      5-min Rain = 0
KPVS 201200Z 24004KT 12/10 A3009 RMK A01 T01230096  RH  085%=      5-min Rain = 0
KPVS 201205Z 23003KT 12/09 A3009 RMK A01 T01220094  RH  085%=      5-min Rain = 0
KPVS 201210Z 22004KT 12/09 A3009 RMK A01 T01180091  RH  085%=      5-min Rain = 0
KPVS 201215Z 23004KT 12/09 A3009 RMK A01 T01150090  RH  086%=      5-min Rain = 0
KPVS 201220Z 22004KT 11/09 A3009 RMK A01 T01140091  RH  087%=      5-min Rain = 0
KPVS 201225Z 22004KT 11/09 A3009 RMK A01 T01130090  RH  087%=      5-min Rain = 0
KPVS 201230Z 22005KT 11/09 A3009 RMK A01 T01100089  RH  088%=      5-min Rain = 0
KPVS 201235Z 23004KT 11/09 A3009 RMK A01 T01110090  RH  089%=      5-min Rain = 0
KPVS 201240Z 24005KT 11/09 A301 RMK A01 T01100089  RH  088%=      5-min Rain = 0
KPVS 201245Z 23005KT 11/09 A3009 RMK A01 T01080089  RH  089%=      5-min Rain = 0
KPVS 201250Z 25005KT 11/09 A3009 RMK A01 T01080089  RH  089%=      5-min Rain = 0
KPVS 201255Z 23005KT 11/09 A301 RMK A01 T01090090  RH  090%=      5-min Rain = 0
KPVS 201300Z 23005KT 11/09 A301 RMK A01 T01070088  RH  089%=      5-min Rain = 0
KPVS 201305Z 23006KT 10/09 A301 RMK A01 T01040086  RH  090%=      5-min Rain = 0
KPVS 201310Z 23005KT 10/09 A301 RMK A01 T01030085  RH  090%=      5-min Rain = 0
KPVS 201315Z 23005KT 10/08 A301 RMK A01 T01020084  RH  090%=      5-min Rain = 0
KPVS 201320Z 23005KT 10/08 A301 RMK A01 T01010084  RH  090%=      5-min Rain = 0
KPVS 201325Z 22006KT 10/09 A301 RMK A01 T01020086  RH  091%=      5-min Rain = 0
KPVS 201330Z 22006KT 11/09 A301 RMK A01 T01060089  RH  091%=      5-min Rain = 0
KPVS 201335Z 22006KT 11/09 A301 RMK A01 T01090092  RH  090%=      5-min Rain = 0
KPVS 201340Z 22006KT 11/09 A301 RMK A01 T01130094  RH  090%=      5-min Rain = 0
KPVS 201345Z 23006KT 12/10 A301 RMK A01 T01170098  RH  090%=      5-min Rain = 0
KPVS 201350Z 23006KT 12/10 A301 RMK A01 T01230101  RH  088%=      5-min Rain = 0
KPVS 201355Z 23006KT 13/10 A301 RMK A01 T01280104  RH  086%=      5-min Rain = 0
KPVS 201400Z 23007KT 14/11 A301 RMK A01 T01350106  RH  084%=      5-min Rain = 0
KPVS 201405Z 23008KT 14/11 A301 RMK A01 T01410108  RH  082%=      5-min Rain = 0
KPVS 201410Z 23008KT 15/11 A301 RMK A01 T01460108  RH  080%=      5-min Rain = 0
KPVS 201415Z 23008KT 15/11 A301 RMK A01 T01500109  RH  078%=      5-min Rain = 0
KPVS 201420Z 24007G12KT 15/11 A301 RMK A01 T01530109  RH  076%=      5-min Rain = 0
KPVS 201425Z 24008KT 16/11 A301 RMK A01 T01570108  RH  074%=      5-min Rain = 0
KPVS 201430Z 24008KT 16/11 A301 RMK A01 T01630107  RH  071%=      5-min Rain = 0
KPVS 201435Z 24007KT 17/11 A301 RMK A01 T01690106  RH  067%=      5-min Rain = 0
KPVS 201440Z 24008KT 17/10 A301 RMK A01 T01730102  RH  064%=      5-min Rain = 0
KPVS 201445Z 23009KT 18/10 A301 RMK A01 T01760098  RH  061%=      5-min Rain = 0
KPVS 201450Z 24008KT 18/09 A301 RMK A01 T01780093  RH  058%=      5-min Rain = 0
KPVS 201455Z 23009KT 18/09 A301 RMK A01 T01820090  RH  056%=      5-min Rain = 0
KPVS 201500Z 23009KT 19/09 A301 RMK A01 T01860087  RH  054%=      5-min Rain = 0
KPVS 201505Z 23009KT 19/09 A301 RMK A01 T01890087  RH  052%=      5-min Rain = 0
KPVS 201510Z 23008KT 19/08 A301 RMK A01 T01920081  RH  049%=      5-min Rain = 0
KPVS 201515Z 23009KT 20/08 A301 RMK A01 T01960077  RH  047%=      5-min Rain = 0
KPVS 201520Z 24008KT 20/08 A301 RMK A01 T01990076  RH  046%=      5-min Rain = 0
KPVS 201525Z 24008KT 20/07 A301 RMK A01 T02010074  RH  044%=      5-min Rain = 0
KPVS 201530Z 24007KT 21/08 A3011 RMK A01 T02050076  RH  044%=      5-min Rain = 0
KPVS 201535Z 25008KT 21/07 A3011 RMK A01 T02090070  RH  041%=      5-min Rain = 0
KPVS 201540Z 25008KT 21/07 A3011 RMK A01 T02100071  RH  041%=      5-min Rain = 0
KPVS 201545Z 25008KT 21/07 A3011 RMK A01 T02110071  RH  041%=      5-min Rain = 0
KPVS 201550Z 25007KT 21/07 A3011 RMK A01 T02130068  RH  039%=      5-min Rain = 0
KPVS 201555Z 25007KT 22/06 A3011 RMK A01 T02160064  RH  038%=      5-min Rain = 0
KPVS 201600Z 25008KT 22/06 A3011 RMK A01 T02170061  RH  037%=      5-min Rain = 0
KPVS 201605Z 25006KT 22/06 A3011 RMK A01 T02190063  RH  037%=      5-min Rain = 0
KPVS 201610Z 25005KT 22/07 A3011 RMK A01 T02240066  RH  037%=      5-min Rain = 0
KPVS 201615Z 24006KT 23/07 A3011 RMK A01 T02280068  RH  036%=      5-min Rain = 0
KPVS 201620Z 26006KT 23/07 A3011 RMK A01 T02320066  RH  035%=      5-min Rain = 0
KPVS 201625Z 26007KT 23/06 A3011 RMK A01 T02340055  RH  032%=      5-min Rain = 0
KPVS 201630Z 27006KT 24/06 A301 RMK A01 T02370056  RH  032%=      5-min Rain = 0
KPVS 201635Z 26006KT 24/06 A301 RMK A01 T02410056  RH  031%=      5-min Rain = 0
KPVS 201640Z 27006KT 24/06 A301 RMK A01 T02430057  RH  031%=      5-min Rain = 0
KPVS 201645Z 25007KT 25/05 A301 RMK A01 T02470051  RH  029%=      5-min Rain = 0
KPVS 201650Z 26007KT 25/05 A301 RMK A01 T02480046  RH  027%=      5-min Rain = 0
KPVS 201655Z 27007KT 25/04 A301 RMK A01 T02540044  RH  026%=      5-min Rain = 0
KPVS 201700Z 28006KT 25/04 A301 RMK A01 T02540044  RH  026%=      5-min Rain = 0
KPVS 201705Z 28005G10KT 26/05 A301 RMK A01 T02570046  RH  026%=      5-min Rain = 0
KPVS 201710Z 28005KT 26/04 A301 RMK A01 T02610042  RH  025%=      5-min Rain = 0
KPVS 201715Z 31007KT 27/03 A301 RMK A01 T02670026  RH  021%=      5-min Rain = 0
KPVS 201720Z 32008KT 27/01 A301 RMK A01 T02710009  RH  018%=      5-min Rain = 0
KPVS 201725Z 30007KT 27/M00 A301 RMK A01 T02731004  RH  017%=      5-min Rain = 0
KPVS 201730Z 30007KT 28/M02 A3009 RMK A01 T02781018  RH  015%=      5-min Rain = 0
KPVS 201735Z 30006KT 28/M02 A3009 RMK A01 T02811019  RH  014%=      5-min Rain = 0
KPVS 201740Z 30007KT 28/M03 A3009 RMK A01 T02811030  RH  013%=      5-min Rain = 0
KPVS 201745Z 28008KT 28/M03 A3009 RMK A01 T02831028  RH  013%=      5-min Rain = 0
KPVS 201750Z 27007KT 29/M03 A3009 RMK A01 T02851027  RH  013%=      5-min Rain = 0
KPVS 201755Z 28009KT 29/M03 A3009 RMK A01 T02871032  RH  012%=      5-min Rain = 0
KPVS 201800Z 29008G13KT 29/M03 A3009 RMK A01 T02891031  RH  012%=      5-min Rain = 0
KPVS 201805Z 28007KT 29/M03 A3008 RMK A01 T02921028  RH  012%=      5-min Rain = 0
KPVS 201810Z 26007KT 29/M03 A3008 RMK A01 T02931025  RH  013%=      5-min Rain = 0
KPVS 201815Z 27008KT 30/M03 A3008 RMK A01 T02951027  RH  012%=      5-min Rain = 0
KPVS 201820Z 28006KT 29/M03 A3008 RMK A01 T02941029  RH  012%=      5-min Rain = 0
KPVS 201825Z 28008KT 30/M03 A3007 RMK A01 T02951031  RH  012%=      5-min Rain = 0
KPVS 201830Z 29005KT 30/M04 A3007 RMK A01 T02951040  RH  011%=      5-min Rain = 0
KPVS 201835Z 28006KT 30/M05 A3007 RMK A01 T02991049  RH  010%=      5-min Rain = 0
KPVS 201840Z 25007KT 30/M04 A3007 RMK A01 T03011043  RH  011%=      5-min Rain = 0
KPVS 201845Z 27007KT 30/M05 A3006 RMK A01 T03021046  RH  010%=      5-min Rain = 0
KPVS 201850Z 27007G13KT 30/M05 A3006 RMK A01 T03031052  RH  010%=      5-min Rain = 0
KPVS 201855Z 26006KT 31/M05 A3006 RMK A01 T03071054  RH  009%=      5-min Rain = 0
KPVS 201900Z 26008G14KT 31/M05 A3006 RMK A01 T03061052  RH  010%=      5-min Rain = 0
KPVS 201905Z 27008KT 31/M05 A3005 RMK A01 T03091050  RH  010%=      5-min Rain = 0
KPVS 201910Z 27008G14KT 31/M05 A3005 RMK A01 T03071047  RH  010%=      5-min Rain = 0
KPVS 201915Z 31008G13KT 31/M05 A3005 RMK A01 T03101051  RH  009%=      5-min Rain = 0
KPVS 201920Z 28004G9KT 31/M05 A3005 RMK A01 T03101047  RH  010%=      5-min Rain = 0
KPVS 201925Z 26006KT 31/M05 A3005 RMK A01 T03111053  RH  009%=      5-min Rain = 0
KPVS 201930Z 23006G11KT 31/M05 A3004 RMK A01 T03101050  RH  010%=      5-min Rain = 0
KPVS 201935Z 23006G13KT 31/M04 A3004 RMK A01 T03111044  RH  010%=      5-min Rain = 0
KPVS 201940Z 23007KT 32/M04 A3004 RMK A01 T03161043  RH  010%=      5-min Rain = 0
KPVS 201945Z 28009KT 32/M05 A3003 RMK A01 T03161046  RH  009%=      5-min Rain = 0
KPVS 201950Z 24005KT 31/M05 A3003 RMK A01 T03131046  RH  010%=      5-min Rain = 0
KPVS 201955Z 26005KT 32/M04 A3003 RMK A01 T03151043  RH  010%=      5-min Rain = 0
KPVS 202000Z 23005KT 32/M04 A3003 RMK A01 T03191044  RH  009%=      5-min Rain = 0
KPVS 202005Z 26007KT 32/M04 A3003 RMK A01 T03171043  RH  010%=      5-min Rain = 0
KPVS 202010Z 28008KT 32/M05 A3002 RMK A01 T03181045  RH  009%=      5-min Rain = 0
KPVS 202015Z 28006KT 32/M05 A3002 RMK A01 T03161051  RH  009%=      5-min Rain = 0
KPVS 202020Z 24009G15KT 32/M04 A3002 RMK A01 T03161044  RH  010%=      5-min Rain = 0
KPVS 202025Z 22009G14KT 32/M05 A3002 RMK A01 T03151045  RH  010%=      5-min Rain = 0
KPVS 202030Z 22006KT 32/M04 A3002 RMK A01 T03191041  RH  010%=      5-min Rain = 0
KPVS 202035Z 21005KT 32/M05 A3001 RMK A01 T03171045  RH  009%=      5-min Rain = 0
KPVS 202040Z 23008G16KT 32/M04 A3001 RMK A01 T03181044  RH  010%=      5-min Rain = 0
KPVS 202045Z 25008G13KT 32/M04 A3001 RMK A01 T03181043  RH  010%=      5-min Rain = 0
KPVS 202050Z 25007KT 32/M05 A3001 RMK A01 T03161047  RH  009%=      5-min Rain = 0
KPVS 202055Z 23008G15KT 32/M04 A3001 RMK A01 T03171043  RH  010%=      5-min Rain = 0
KPVS 202100Z 28010G16KT 32/M04 A30 RMK A01 T03201039  RH  010%=      5-min Rain = 0
KPVS 202105Z 28009G16KT 32/M04 A30 RMK A01 T03221041  RH  010%=      5-min Rain = 0
KPVS 202110Z 24010G16KT 32/M04 A30 RMK A01 T03221041  RH  010%=      5-min Rain = 0
KPVS 202115Z 24008G16KT 32/M05 A30 RMK A01 T03181046  RH  009%=      5-min Rain = 0
KPVS 202120Z 23008KT 32/M05 A30 RMK A01 T03171047  RH  009%=      5-min Rain = 0
KPVS 202125Z 23006KT 32/M04 A30 RMK A01 T03201042  RH  010%=      5-min Rain = 0
KPVS 202130Z 27007KT 32/M05 A30 RMK A01 T03201047  RH  009%=      5-min Rain = 0
KPVS 202135Z 28009G16KT 32/M04 A2999 RMK A01 T03201043  RH  009%=      5-min Rain = 0
KPVS 202140Z 27010G15KT 32/M05 A2999 RMK A01 T03221048  RH  009%=      5-min Rain = 0
KPVS 202145Z 26008G15KT 32/M05 A2999 RMK A01 T03191049  RH  009%=      5-min Rain = 0
KPVS 202150Z 27011KT 32/M05 A2999 RMK A01 T03201048  RH  009%=      5-min Rain = 0
KPVS 202155Z 25008KT 32/M05 A2999 RMK A01 T03191051  RH  009%=      5-min Rain = 0
KPVS 202200Z 23006KT 32/M05 A2999 RMK A01 T03181053  RH  009%=      5-min Rain = 0
KPVS 202205Z 25007G12KT 32/M05 A2999 RMK A01 T03181050  RH  009%=      5-min Rain = 0
KPVS 202210Z 27012KT 32/M05 A2998 RMK A01 T03201048  RH  009%=      5-min Rain = 0
KPVS 202215Z 26008KT 32/M05 A2998 RMK A01 T03181053  RH  009%=      5-min Rain = 0
KPVS 202220Z 25006KT 32/M05 A2998 RMK A01 T03191048  RH  009%=      5-min Rain = 0
KPVS 202225Z 24009G15KT 32/M05 A2998 RMK A01 T03221049  RH  009%=      5-min Rain = 0
KPVS 202230Z 26012G19KT 32/M05 A2998 RMK A01 T03201050  RH  009%=      5-min Rain = 0
KPVS 202235Z 26010G16KT 32/M06 A2998 RMK A01 T03171057  RH  009%=      5-min Rain = 0
KPVS 202240Z 26008KT 32/M05 A2998 RMK A01 T03181052  RH  009%=      5-min Rain = 0
KPVS 202245Z 26009G17KT 32/M05 A2998 RMK A01 T03181053  RH  009%=      5-min Rain = 0
KPVS 202250Z 27009G14KT 32/M06 A2998 RMK A01 T03171055  RH  009%=      5-min Rain = 0
KPVS 202255Z 26007G12KT 32/M05 A2998 RMK A01 T03191050  RH  009%=      5-min Rain = 0
KPVS 202300Z 24008G15KT 32/M05 A2998 RMK A01 T03191053  RH  009%=      5-min Rain = 0
KPVS 202305Z 26009KT 32/M05 A2998 RMK A01 T03181053  RH  009%=      5-min Rain = 0
KPVS 202310Z 25009KT 32/M06 A2998 RMK A01 T03171057  RH  009%=      5-min Rain = 0
KPVS 202315Z 25008G13KT 32/M06 A2998 RMK A01 T03161058  RH  009%=      5-min Rain = 0
KPVS 202320Z 26009G14KT 32/M06 A2998 RMK A01 T03151057  RH  009%=      5-min Rain = 0
KPVS 202325Z 25009KT 32/M06 A2997 RMK A01 T03151055  RH  009%=      5-min Rain = 0
KPVS 202330Z 25008KT 32/M06 A2997 RMK A01 T03151055  RH  009%=      5-min Rain = 0
KPVS 202335Z 25011G16KT 31/M06 A2997 RMK A01 T03131056  RH  009%=      5-min Rain = 0
KPVS 202340Z 24008G13KT 31/M06 A2998 RMK A01 T03131057  RH  009%=      5-min Rain = 0
KPVS 202345Z 24004KT 31/M05 A2997 RMK A01 T03141051  RH  009%=      5-min Rain = 0
KPVS 202350Z 26007KT 31/M05 A2997 RMK A01 T03131052  RH  009%=      5-min Rain = 0
KPVS 202355Z 29008KT 31/M05 A2998 RMK A01 T03101051  RH  009%=      5-min Rain = 0
KPVS 210000Z 28011KT 31/M06 A2997 RMK A01 T03081055  RH  009%=      5-min Rain = 0
KPVS 210005Z 27009KT 31/M05 A2998 RMK A01 T03051050  RH  010%=      5-min Rain = 0
KPVS 210010Z 27008KT 30/M05 A2998 RMK A01 T03031053  RH  010%=      5-min Rain = 0
KPVS 210015Z 27007KT 30/M05 A2998 RMK A01 T03011049  RH  010%=      5-min Rain = 0
KPVS 210020Z 28007KT 30/M05 A2998 RMK A01 T02981048  RH  010%=      5-min Rain = 0
KPVS 210025Z 27005KT 30/M05 A2998 RMK A01 T02961050  RH  010%=      5-min Rain = 0
KPVS 210030Z 26006KT 30/M05 A2998 RMK A01 T02951046  RH  011%=      5-min Rain = 0
KPVS 210035Z 27006KT 29/M05 A2998 RMK A01 T02921046  RH  011%=      5-min Rain = 0
KPVS 210040Z 27005KT 29/M04 A2998 RMK A01 T02901044  RH  011%=      5-min Rain = 0
KPVS 210045Z 27005KT 29/M04 A2998 RMK A01 T02861043  RH  012%=      5-min Rain = 0
KPVS 210050Z 26005KT 28/M04 A2998 RMK A01 T02841044  RH  011%=      5-min Rain = 0
KPVS 210055Z 26004KT 28/M04 A2998 RMK A01 T02811043  RH  012%=      5-min Rain = 0
KPVS 210100Z 25004KT 27/M04 A2998 RMK A01 T02731044  RH  012%=      5-min Rain = 0
KPVS 210105Z 26004KT 27/M04 A2998 RMK A01 T02681041  RH  013%=      5-min Rain = 0
KPVS 210110Z 25004KT 26/M04 A2998 RMK A01 T02621036  RH  014%=      5-min Rain = 0
KPVS 210115Z 25004KT 26/M03 A2998 RMK A01 T02551031  RH  015%=      5-min Rain = 0
KPVS 210120Z 26003KT 25/M03 A2998 RMK A01 T02471026  RH  016%=      5-min Rain = 0
KPVS 210125Z 26003KT 24/M03 A2998 RMK A01 T02401027  RH  017%=      5-min Rain = 0
KPVS 210130Z 27003KT 23/M03 A2998 RMK A01 T02331028  RH  018%=      5-min Rain = 0
KPVS 210135Z 26002KT 23/M03 A2998 RMK A01 T02271026  RH  019%=      5-min Rain = 0
KPVS 210140Z 26002KT 22/M02 A2998 RMK A01 T02221022  RH  020%=      5-min Rain = 0
KPVS 210145Z 26003KT 22/M02 A2999 RMK A01 T02151017  RH  021%=      5-min Rain = 0
KPVS 210150Z 27002KT 21/M01 A2999 RMK A01 T02121014  RH  022%=      5-min Rain = 0
KPVS 210155Z 27002KT 21/M02 A2999 RMK A01 T02101017  RH  022%=      5-min Rain = 0
KPVS 210200Z 24001KT 21/M02 A2999 RMK A01 T02061015  RH  023%=      5-min Rain = 0
KPVS 210205Z 26002KT 20/M01 A2999 RMK A01 T02021012  RH  024%=      5-min Rain = 0
KPVS 210210Z 26002KT 20/M01 A2999 RMK A01 T01991007  RH  025%=      5-min Rain = 0
KPVS 210215Z 26002KT 20/M01 A2999 RMK A01 T01961010  RH  025%=      5-min Rain = 0
KPVS 210220Z 25002KT 19/M01 A2999 RMK A01 T01931013  RH  025%=      5-min Rain = 0
KPVS 210225Z 25002KT 19/M02 A2999 RMK A01 T01921015  RH  025%=      5-min Rain = 0
KPVS 210230Z 25002KT 19/M02 A2999 RMK A01 T01901015  RH  025%=      5-min Rain = 0
KPVS 210235Z 25002KT 19/M01 A2999 RMK A01 T01881014  RH  026%=      5-min Rain = 0
KPVS 210240Z 24002KT 19/M01 A2999 RMK A01 T01871013  RH  026%=      5-min Rain = 0
KPVS 210245Z 22002KT 18/M01 A30 RMK A01 T01841012  RH  027%=      5-min Rain = 0
KPVS 210250Z 23002KT 18/M01 A30 RMK A01 T01791011  RH  028%=      5-min Rain = 0
KPVS 210255Z 23002KT 18/M01 A30 RMK A01 T01761007  RH  029%=      5-min Rain = 0
KPVS 210300Z 22002KT 17/M01 A30 RMK A01 T01721007  RH  030%=      5-min Rain = 0
KPVS 210305Z 21002KT 17/M01 A30 RMK A01 T01671009  RH  030%=      5-min Rain = 0
KPVS 210310Z 22002KT 16/M01 A30 RMK A01 T01641010  RH  031%=      5-min Rain = 0
KPVS 210315Z 23002KT 16/M01 A30 RMK A01 T01601009  RH  032%=      5-min Rain = 0
KPVS 210320Z 23002KT 16/M01 A30 RMK A01 T01561011  RH  032%=      5-min Rain = 0
KPVS 210325Z 22003KT 15/M01 A30 RMK A01 T01541013  RH  032%=      5-min Rain = 0
KPVS 210330Z 21002KT 15/M01 A30 RMK A01 T01521010  RH  033%=      5-min Rain = 0
KPVS 210335Z 22002KT 15/M01 A30 RMK A01 T01501010  RH  034%=      5-min Rain = 0
KPVS 210340Z 22002KT 15/M01 A30 RMK A01 T01481007  RH  035%=      5-min Rain = 0
KPVS 210345Z 21002KT 15/M01 A30 RMK A01 T01471006  RH  035%=      5-min Rain = 0
KPVS 210350Z 21001KT 15/M01 A30 RMK A01 T01451007  RH  036%=      5-min Rain = 0
KPVS 210355Z 23001KT 14/M01 A30 RMK A01 T01421010  RH  036%=      5-min Rain = 0
KPVS 210400Z 22002KT 14/M01 A30 RMK A01 T01401006  RH  037%=      5-min Rain = 0
KPVS 210405Z 22002KT 14/00 A30 RMK A01 T014000-0  RH  039%=      5-min Rain = 0
KPVS 210410Z 33002KT 14/M00 A30 RMK A01 T01391002  RH  038%=      5-min Rain = 0
KPVS 210415Z 02003KT 14/M01 A30 RMK A01 T01431010  RH  035%=      5-min Rain = 0
KPVS 210420Z 01001KT 15/M01 A30 RMK A01 T01501005  RH  035%=      5-min Rain = 0
KPVS 210425Z 36004KT 15/M01 A30 RMK A01 T01451007  RH  036%=      5-min Rain = 0
KPVS 210430Z 02003KT 15/M01 A30 RMK A01 T01481011  RH  034%=      5-min Rain = 0
KPVS 210435Z 02001KT 15/M01 A30 RMK A01 T01501008  RH  034%=      5-min Rain = 0
KPVS 210440Z 24001KT 15/M01 A30 RMK A01 T01521007  RH  034%=      5-min Rain = 0
KPVS 210445Z 16002KT 15/M01 A30 RMK A01 T01531009  RH  033%=      5-min Rain = 0
KPVS 210450Z 16002KT 15/M00 A30 RMK A01 T01521003  RH  035%=      5-min Rain = 0
KPVS 210455Z 17002KT 15/M00 A3001 RMK A01 T01471003  RH  036%=      5-min Rain = 0
KPVS 210500Z 15004KT 15/M01 A3001 RMK A01 T01491007  RH  035%=      5-min Rain = 0

Page generated in 0.5458 seconds.